createdAt,value
2023-04-02T00:03:10.424Z,99620.00
2023-04-02T00:08:21.525Z,99628.80
2023-04-02T00:13:39.633Z,99629.20
2023-04-02T00:18:55.842Z,99635.80
2023-04-02T00:24:14.010Z,99639.80
2023-04-02T00:29:19.037Z,99639.60
2023-04-02T00:34:28.897Z,99650.60
2023-04-02T00:39:42.158Z,99655.20
2023-04-02T00:44:48.869Z,99660.60
2023-04-02T00:50:18.723Z,99668.60
2023-04-02T00:55:36.483Z,99669.20
2023-04-02T01:00:40.824Z,99672.20
2023-04-02T01:06:01.716Z,99679.60
2023-04-02T01:11:24.204Z,99683.00
2023-04-02T01:16:50.849Z,99687.40
2023-04-02T01:22:18.341Z,99695.80
2023-04-02T01:27:39.868Z,99697.80
2023-04-02T01:32:43.800Z,99701.80
2023-04-02T01:37:52.869Z,99708.20
2023-04-02T01:43:24.982Z,99710.40
2023-04-02T01:48:32.041Z,99715.20
2023-04-02T01:53:35.168Z,99712.40
2023-04-02T01:58:38.655Z,99727.60
2023-04-02T02:03:44.270Z,99732.00
2023-04-02T02:08:56.463Z,99736.40
2023-04-02T02:14:06.708Z,99737.60
2023-04-02T02:19:44.935Z,99750.00
2023-04-02T02:24:48.967Z,99749.40
2023-04-02T02:30:18.497Z,99761.40
2023-04-02T02:35:54.786Z,99765.40
2023-04-02T02:41:06.614Z,99767.00
2023-04-02T02:46:18.248Z,99765.00
2023-04-02T02:51:30.262Z,99772.80
2023-04-02T02:56:41.001Z,99774.40
2023-04-02T03:01:47.455Z,99777.20
2023-04-02T03:06:57.687Z,99787.00
2023-04-02T03:13:03.692Z,99788.20
2023-04-02T03:18:43.892Z,99797.20
2023-04-02T03:24:18.011Z,99811.80
2023-04-02T03:29:34.349Z,99817.40
2023-04-02T03:34:43.629Z,99829.80
2023-04-02T03:40:10.887Z,99835.60
2023-04-02T03:45:18.240Z,99838.80
2023-04-02T03:50:38.679Z,99858.60
2023-04-02T03:55:43.357Z,99863.60
2023-04-02T04:01:24.380Z,99866.80
2023-04-02T04:06:32.892Z,99878.60
2023-04-02T04:11:49.760Z,99883.00
2023-04-02T04:17:14.043Z,99887.80
2023-04-02T04:22:30.510Z,99893.00
2023-04-02T04:28:38.650Z,99901.20
2023-04-02T04:33:47.497Z,99902.20
2023-04-02T04:38:55.803Z,99910.80
2023-04-02T04:44:14.865Z,99916.80
2023-04-02T04:49:34.234Z,99930.00
2023-04-02T04:54:40.126Z,99944.80
2023-04-02T05:00:02.545Z,99952.60
2023-04-02T05:05:26.461Z,99952.20
2023-04-02T05:10:44.202Z,99962.80
2023-04-02T05:16:23.312Z,99970.20
2023-04-02T05:21:49.041Z,99976.00
2023-04-02T05:26:57.092Z,99985.40
2023-04-02T05:32:23.392Z,99995.20
2023-04-02T05:37:30.520Z,99994.00
2023-04-02T05:42:38.030Z,99992.40
2023-04-02T05:47:44.728Z,99998.00
2023-04-02T05:52:58.823Z,100003.80
2023-04-02T06:03:47.540Z,100018.40
2023-04-02T06:09:00.121Z,100021.20
2023-04-02T06:14:04.945Z,100029.40
2023-04-02T06:19:20.776Z,100037.60
2023-04-02T06:24:27.854Z,100046.40
2023-04-02T06:29:39.691Z,100064.80
2023-04-02T06:34:43.423Z,100057.00
2023-04-02T06:39:46.600Z,100059.00
2023-04-02T06:44:52.813Z,100075.40
2023-04-02T06:50:23.433Z,100077.20
2023-04-02T06:56:33.852Z,100082.60
2023-04-02T07:02:03.626Z,100092.60
2023-04-02T07:07:06.672Z,100099.40
2023-04-02T07:12:14.070Z,100112.00
2023-04-02T07:17:18.808Z,100118.40
2023-04-02T07:22:22.812Z,100128.40
2023-04-02T07:27:26.535Z,100131.80
2023-04-02T07:32:29.490Z,100138.20
2023-04-02T07:37:32.505Z,100144.20
2023-04-02T07:42:35.936Z,100150.40
2023-04-02T07:47:39.164Z,100153.00
2023-04-02T07:52:43.294Z,100159.40
2023-04-02T07:57:59.737Z,100166.20
2023-04-02T08:03:04.778Z,100171.40
2023-04-02T08:08:08.090Z,100176.40
2023-04-02T08:13:11.385Z,100186.60
2023-04-02T08:18:14.574Z,100192.80
2023-04-02T08:23:18.230Z,100203.80
2023-04-02T08:28:22.532Z,100212.40
2023-04-02T08:33:26.354Z,100216.60
2023-04-02T08:38:31.817Z,100224.20
2023-04-02T08:44:10.161Z,100229.40
2023-04-02T08:49:18.594Z,100237.00
2023-04-02T08:54:29.036Z,100238.80
2023-04-02T08:59:43.571Z,100247.40
2023-04-02T09:04:47.156Z,100251.60
2023-04-02T09:09:51.167Z,100258.80
2023-04-02T09:15:29.598Z,100269.60
2023-04-02T09:20:32.713Z,100273.20
2023-04-02T09:25:35.846Z,100285.20
2023-04-02T09:31:22.775Z,100293.20
2023-04-02T09:36:35.289Z,100302.00
2023-04-02T09:41:38.722Z,100312.40
2023-04-02T09:47:00.411Z,100325.20
2023-04-02T09:52:30.389Z,100325.80
2023-04-02T09:57:38.389Z,100334.60
2023-04-02T10:02:44.035Z,100342.00
2023-04-02T10:08:04.976Z,100350.40
2023-04-02T10:13:23.171Z,100359.40
2023-04-02T10:18:40.307Z,100358.40
2023-04-02T10:23:44.079Z,100368.40
2023-04-02T10:29:15.002Z,100377.40
2023-04-02T10:34:58.429Z,100374.80
2023-04-02T10:40:29.862Z,100384.60
2023-04-02T10:46:10.187Z,100389.20
2023-04-02T10:51:39.425Z,100397.00
2023-04-02T10:56:50.648Z,100394.40
2023-04-02T11:01:58.223Z,100406.00
2023-04-02T11:07:24.722Z,100413.40
2023-04-02T11:12:49.929Z,100420.40
2023-04-02T11:17:53.320Z,100432.40
2023-04-02T11:23:38.826Z,100433.00
2023-04-02T11:29:15.968Z,100432.60
2023-04-02T11:35:03.013Z,100442.00
2023-04-02T11:40:13.021Z,100446.40
2023-04-02T11:45:26.393Z,100462.20
2023-04-02T11:50:39.856Z,100462.20
2023-04-02T11:56:17.103Z,100455.40
2023-04-02T12:01:40.351Z,100475.80
2023-04-02T12:07:03.892Z,100480.60
2023-04-02T12:12:39.008Z,100484.20
2023-04-02T12:17:42.273Z,100480.40
2023-04-02T12:22:53.561Z,100488.60
2023-04-02T12:28:18.737Z,100508.20
2023-04-02T12:33:37.151Z,100495.80
2023-04-02T12:38:58.684Z,100506.00
2023-04-02T12:44:04.325Z,100504.40
2023-04-02T12:49:22.342Z,100523.20
2023-04-02T12:54:25.720Z,100515.80
2023-04-02T12:59:41.040Z,100532.00
2023-04-02T13:04:50.404Z,100537.20
2023-04-02T13:09:57.108Z,100538.00
2023-04-02T13:15:04.814Z,100545.80
2023-04-02T13:20:43.903Z,100557.20
2023-04-02T13:25:46.877Z,100561.60
2023-04-02T13:30:50.332Z,100564.20
2023-04-02T13:35:53.722Z,100576.20
2023-04-02T13:40:56.597Z,100586.00
2023-04-02T13:46:01.224Z,100591.60
2023-04-02T13:51:04.216Z,100595.00
2023-04-02T13:56:08.753Z,100589.00
2023-04-02T14:01:21.394Z,100597.00
2023-04-02T14:06:28.110Z,100620.40
2023-04-02T14:12:21.372Z,100607.60
2023-04-02T14:18:10.724Z,100626.60
2023-04-02T14:23:18.896Z,100611.60
2023-04-02T14:28:43.502Z,100623.80
2023-04-02T14:34:24.605Z,100625.00
2023-04-02T14:39:52.372Z,100628.60
2023-04-02T14:45:07.436Z,100642.20
2023-04-02T14:50:40.518Z,100640.20
2023-04-02T14:55:52.199Z,100643.00
2023-04-02T15:01:32.562Z,100656.00
2023-04-02T15:06:50.744Z,100656.60
2023-04-02T15:12:28.885Z,100656.60
2023-04-02T15:17:34.761Z,100672.40
2023-04-02T15:22:57.067Z,100669.20
2023-04-02T15:28:34.680Z,100670.60
2023-04-02T15:34:05.006Z,100686.80
2023-04-02T15:39:43.356Z,100694.40
2023-04-02T15:45:12.744Z,100693.80
2023-04-02T15:50:56.210Z,100699.80
2023-04-02T15:56:13.101Z,100717.00
2023-04-02T16:01:45.877Z,100723.20
2023-04-02T16:07:06.586Z,100728.20
2023-04-02T16:12:20.067Z,100729.00
2023-04-02T16:17:36.083Z,100737.20
2023-04-02T16:22:59.352Z,100749.20
2023-04-02T16:28:20.165Z,100755.00
2023-04-02T16:34:03.160Z,100760.20
2023-04-02T16:39:18.213Z,100774.80
2023-04-02T16:45:19.296Z,100780.40
2023-04-02T16:51:10.975Z,100786.00
2023-04-02T16:56:35.742Z,100800.40
2023-04-02T17:02:49.807Z,100815.20
2023-04-02T17:08:19.674Z,100816.80
2023-04-02T17:13:53.485Z,100828.60
2023-04-02T17:19:00.915Z,100843.40
2023-04-02T17:24:27.165Z,100844.60
2023-04-02T17:29:44.935Z,100867.20
2023-04-02T17:34:48.171Z,100863.40
2023-04-02T17:40:41.096Z,100882.80
2023-04-02T17:46:18.153Z,100895.40
2023-04-02T17:51:44.378Z,100911.60
2023-04-02T17:57:41.431Z,100925.40
2023-04-02T18:03:45.103Z,100933.60
2023-04-02T18:09:09.933Z,100947.00
2023-04-02T18:14:53.701Z,100953.80
2023-04-02T18:20:51.440Z,100964.20
2023-04-02T18:26:07.519Z,100982.80
2023-04-02T18:31:37.637Z,100988.80
2023-04-02T18:36:46.421Z,100995.60
2023-04-02T18:42:46.130Z,100999.20
2023-04-02T18:48:43.255Z,101010.40
2023-04-02T18:53:48.953Z,101024.40
2023-04-02T18:58:59.421Z,101024.60
2023-04-02T19:04:16.635Z,101031.40
2023-04-02T19:09:34.725Z,101036.80
2023-04-02T19:14:37.929Z,101045.00
2023-04-02T19:20:09.495Z,101045.20
2023-04-02T19:25:39.577Z,101053.00
2023-04-02T19:31:11.633Z,101059.60
2023-04-02T19:36:45.489Z,101061.20
2023-04-02T19:42:18.013Z,101079.20
2023-04-02T19:47:24.581Z,101085.60
2023-04-02T19:52:27.750Z,101092.00
2023-04-02T19:57:31.194Z,101098.40
2023-04-02T20:02:34.369Z,101110.00
2023-04-02T20:07:37.855Z,101110.40
2023-04-02T20:12:41.092Z,101122.40
2023-04-02T20:17:44.053Z,101129.00
2023-04-02T20:22:48.507Z,101123.00
2023-04-02T20:27:51.569Z,101136.40
2023-04-02T20:32:55.769Z,101142.20
2023-04-02T20:37:58.812Z,101142.80
2023-04-02T20:43:01.760Z,101148.00
2023-04-02T20:48:05.944Z,101152.00
2023-04-02T20:53:08.788Z,101163.00
2023-04-02T20:58:18.027Z,101160.80
2023-04-02T21:03:20.947Z,101172.00
2023-04-02T21:08:24.266Z,101177.40
2023-04-02T21:13:31.201Z,101183.40
2023-04-02T21:18:34.248Z,101190.00
2023-04-02T21:23:37.058Z,101191.60
2023-04-02T21:28:39.912Z,101197.80
2023-04-02T21:33:50.571Z,101200.60
2023-04-02T21:38:58.247Z,101205.80
2023-04-02T21:44:05.042Z,101208.80
2023-04-02T21:49:09.323Z,101211.60
2023-04-02T21:54:13.400Z,101215.40
2023-04-02T21:59:18.354Z,101218.40
2023-04-02T22:04:24.653Z,101220.20
2023-04-02T22:09:27.712Z,101223.00
2023-04-02T22:14:30.897Z,101219.60
2023-04-02T22:19:33.741Z,101226.00
2023-04-02T22:24:36.631Z,101235.00
2023-04-02T22:29:39.761Z,101238.20
2023-04-02T22:34:46.075Z,101238.80
2023-04-02T22:39:48.954Z,101234.80
2023-04-02T22:44:51.899Z,101237.60
2023-04-02T22:49:54.754Z,101240.80
2023-04-02T22:54:57.630Z,101247.20
2023-04-02T23:00:00.581Z,101251.60
2023-04-02T23:05:05.171Z,101250.00
2023-04-02T23:10:08.485Z,101252.00
2023-04-02T23:15:11.894Z,101257.20
2023-04-02T23:20:14.916Z,101261.40
2023-04-02T23:25:17.927Z,101257.80
2023-04-02T23:30:20.910Z,101264.60
2023-04-02T23:35:23.868Z,101262.80
2023-04-02T23:40:27.196Z,101262.20
2023-04-02T23:45:30.131Z,101262.80
2023-04-02T23:50:33.051Z,101259.80
2023-04-02T23:55:36.151Z,101263.00
